sensor_id;sensor_type;location;lat;lon;timestamp;temperature;humidity
7232;DHT22;3657;49.630;11.018;2023-11-21T00:02:13;8.10;99.90
7232;DHT22;3657;49.630;11.018;2023-11-21T00:04:40;8.10;99.90
7232;DHT22;3657;49.630;11.018;2023-11-21T00:07:07;8.10;99.90
7232;DHT22;3657;49.630;11.018;2023-11-21T00:09:34;8.20;99.90
7232;DHT22;3657;49.630;11.018;2023-11-21T00:12:02;8.20;99.90
7232;DHT22;3657;49.630;11.018;2023-11-21T00:14:29;8.10;99.90
7232;DHT22;3657;49.630;11.018;2023-11-21T00:16:55;8.10;99.90
7232;DHT22;3657;49.630;11.018;2023-11-21T00:19:23;8.20;99.90
7232;DHT22;3657;49.630;11.018;2023-11-21T00:21:50;8.10;99.90
7232;DHT22;3657;49.630;11.018;2023-11-21T00:24:17;8.10;99.90
7232;DHT22;3657;49.630;11.018;2023-11-21T00:26:43;8.10;99.90
7232;DHT22;3657;49.630;11.018;2023-11-21T00:29:10;8.00;99.90
7232;DHT22;3657;49.630;11.018;2023-11-21T00:31:37;8.00;99.90
7232;DHT22;3657;49.630;11.018;2023-11-21T00:34:04;8.00;99.90
7232;DHT22;3657;49.630;11.018;2023-11-21T00:36:32;8.00;99.90
7232;DHT22;3657;49.630;11.018;2023-11-21T00:38:59;8.10;99.90
7232;DHT22;3657;49.630;11.018;2023-11-21T00:41:26;8.00;99.90
7232;DHT22;3657;49.630;11.018;2023-11-21T00:43:53;8.10;99.90
7232;DHT22;3657;49.630;11.018;2023-11-21T00:46:20;8.10;99.90
7232;DHT22;3657;49.630;11.018;2023-11-21T00:48:47;8.10;99.90
7232;DHT22;3657;49.630;11.018;2023-11-21T00:51:14;8.10;99.90
7232;DHT22;3657;49.630;11.018;2023-11-21T00:53:42;8.10;99.90
7232;DHT22;3657;49.630;11.018;2023-11-21T00:56:08;8.10;99.90
7232;DHT22;3657;49.630;11.018;2023-11-21T00:58:35;8.10;99.90
7232;DHT22;3657;49.630;11.018;2023-11-21T01:01:02;8.10;99.90
7232;DHT22;3657;49.630;11.018;2023-11-21T01:03:29;8.10;99.90
7232;DHT22;3657;49.630;11.018;2023-11-21T01:05:55;8.10;99.90
7232;DHT22;3657;49.630;11.018;2023-11-21T01:08:22;8.10;99.90
7232;DHT22;3657;49.630;11.018;2023-11-21T01:10:50;8.10;99.90
7232;DHT22;3657;49.630;11.018;2023-11-21T01:13:17;8.10;99.90
7232;DHT22;3657;49.630;11.018;2023-11-21T01:15:44;8.10;99.90
7232;DHT22;3657;49.630;11.018;2023-11-21T01:18:11;8.10;99.90
7232;DHT22;3657;49.630;11.018;2023-11-21T01:20:38;8.10;99.90
7232;DHT22;3657;49.630;11.018;2023-11-21T01:23:05;8.00;99.90
7232;DHT22;3657;49.630;11.018;2023-11-21T01:25:32;8.00;99.90
7232;DHT22;3657;49.630;11.018;2023-11-21T01:28:00;8.00;99.90
7232;DHT22;3657;49.630;11.018;2023-11-21T01:30:26;8.00;99.90
7232;DHT22;3657;49.630;11.018;2023-11-21T01:32:53;8.00;99.90
7232;DHT22;3657;49.630;11.018;2023-11-21T01:35:20;8.00;99.90
7232;DHT22;3657;49.630;11.018;2023-11-21T01:37:46;8.00;99.90
7232;DHT22;3657;49.630;11.018;2023-11-21T01:40:14;8.00;99.90
7232;DHT22;3657;49.630;11.018;2023-11-21T01:42:41;8.00;99.90
7232;DHT22;3657;49.630;11.018;2023-11-21T01:45:10;7.90;99.90
7232;DHT22;3657;49.630;11.018;2023-11-21T01:47:38;7.90;99.90
7232;DHT22;3657;49.630;11.018;2023-11-21T01:50:08;7.90;99.90
7232;DHT22;3657;49.630;11.018;2023-11-21T01:52:37;7.80;99.90
7232;DHT22;3657;49.630;11.018;2023-11-21T01:55:07;7.90;99.90
7232;DHT22;3657;49.630;11.018;2023-11-21T01:57:35;7.90;99.90
7232;DHT22;3657;49.630;11.018;2023-11-21T02:00:04;7.90;99.90
7232;DHT22;3657;49.630;11.018;2023-11-21T02:02:42;7.90;99.90
7232;DHT22;3657;49.630;11.018;2023-11-21T02:05:09;7.90;99.90
7232;DHT22;3657;49.630;11.018;2023-11-21T02:07:38;7.90;99.90
7232;DHT22;3657;49.630;11.018;2023-11-21T02:10:05;7.80;99.90
7232;DHT22;3657;49.630;11.018;2023-11-21T02:12:32;7.90;99.90
7232;DHT22;3657;49.630;11.018;2023-11-21T02:14:59;7.80;99.90
7232;DHT22;3657;49.630;11.018;2023-11-21T02:17:26;7.80;99.90
7232;DHT22;3657;49.630;11.018;2023-11-21T02:22:25;7.70;99.90
7232;DHT22;3657;49.630;11.018;2023-11-21T02:24:54;7.70;99.90
7232;DHT22;3657;49.630;11.018;2023-11-21T02:27:21;7.70;99.90
7232;DHT22;3657;49.630;11.018;2023-11-21T02:29:49;7.60;99.90
7232;DHT22;3657;49.630;11.018;2023-11-21T02:32:15;7.70;99.90
7232;DHT22;3657;49.630;11.018;2023-11-21T02:34:44;7.60;99.90
7232;DHT22;3657;49.630;11.018;2023-11-21T02:37:11;7.60;99.90
7232;DHT22;3657;49.630;11.018;2023-11-21T02:39:38;7.60;99.90
7232;DHT22;3657;49.630;11.018;2023-11-21T02:42:06;7.50;99.90
7232;DHT22;3657;49.630;11.018;2023-11-21T02:44:33;7.60;99.90
7232;DHT22;3657;49.630;11.018;2023-11-21T02:47:00;7.70;99.90
7232;DHT22;3657;49.630;11.018;2023-11-21T02:49:26;7.70;99.90
7232;DHT22;3657;49.630;11.018;2023-11-21T02:51:53;7.80;99.90
7232;DHT22;3657;49.630;11.018;2023-11-21T02:54:21;7.80;99.90
7232;DHT22;3657;49.630;11.018;2023-11-21T02:56:48;7.80;99.90
7232;DHT22;3657;49.630;11.018;2023-11-21T02:59:16;7.80;99.90
7232;DHT22;3657;49.630;11.018;2023-11-21T03:01:43;7.80;99.90
7232;DHT22;3657;49.630;11.018;2023-11-21T03:04:09;7.80;99.90
7232;DHT22;3657;49.630;11.018;2023-11-21T03:06:36;7.80;99.90
7232;DHT22;3657;49.630;11.018;2023-11-21T03:09:03;7.80;99.90
7232;DHT22;3657;49.630;11.018;2023-11-21T03:11:32;7.80;99.90
7232;DHT22;3657;49.630;11.018;2023-11-21T03:13:58;7.70;99.90
7232;DHT22;3657;49.630;11.018;2023-11-21T03:16:26;7.80;99.90
7232;DHT22;3657;49.630;11.018;2023-11-21T03:18:53;7.80;99.90
7232;DHT22;3657;49.630;11.018;2023-11-21T03:21:20;7.80;99.90
7232;DHT22;3657;49.630;11.018;2023-11-21T03:23:46;7.80;99.90
7232;DHT22;3657;49.630;11.018;2023-11-21T03:26:13;7.80;99.90
7232;DHT22;3657;49.630;11.018;2023-11-21T03:28:40;7.80;99.90
7232;DHT22;3657;49.630;11.018;2023-11-21T03:31:06;7.80;99.90
7232;DHT22;3657;49.630;11.018;2023-11-21T03:33:35;7.90;99.90
7232;DHT22;3657;49.630;11.018;2023-11-21T03:36:02;7.80;99.90
7232;DHT22;3657;49.630;11.018;2023-11-21T03:38:29;7.90;99.90
7232;DHT22;3657;49.630;11.018;2023-11-21T03:40:56;7.90;99.90
7232;DHT22;3657;49.630;11.018;2023-11-21T03:43:22;7.90;99.90
7232;DHT22;3657;49.630;11.018;2023-11-21T03:45:50;7.90;99.90
7232;DHT22;3657;49.630;11.018;2023-11-21T03:48:16;7.90;99.90
7232;DHT22;3657;49.630;11.018;2023-11-21T03:50:44;7.90;99.90
7232;DHT22;3657;49.630;11.018;2023-11-21T03:53:12;7.90;99.90
7232;DHT22;3657;49.630;11.018;2023-11-21T03:55:39;7.90;99.90
7232;DHT22;3657;49.630;11.018;2023-11-21T03:58:06;7.80;99.90
7232;DHT22;3657;49.630;11.018;2023-11-21T04:00:32;7.80;99.90
7232;DHT22;3657;49.630;11.018;2023-11-21T04:02:59;7.80;99.90
7232;DHT22;3657;49.630;11.018;2023-11-21T04:05:26;7.80;99.90
7232;DHT22;3657;49.630;11.018;2023-11-21T04:07:54;7.80;99.90
7232;DHT22;3657;49.630;11.018;2023-11-21T04:10:20;7.80;99.90
7232;DHT22;3657;49.630;11.018;2023-11-21T04:12:47;7.90;99.90
7232;DHT22;3657;49.630;11.018;2023-11-21T04:15:14;7.80;99.90
7232;DHT22;3657;49.630;11.018;2023-11-21T04:17:41;7.90;99.90
7232;DHT22;3657;49.630;11.018;2023-11-21T04:20:08;7.90;99.90
7232;DHT22;3657;49.630;11.018;2023-11-21T04:22:37;7.90;99.90
7232;DHT22;3657;49.630;11.018;2023-11-21T04:25:08;7.90;99.90
7232;DHT22;3657;49.630;11.018;2023-11-21T04:27:34;7.90;99.90
7232;DHT22;3657;49.630;11.018;2023-11-21T04:30:01;7.90;99.90
7232;DHT22;3657;49.630;11.018;2023-11-21T04:32:28;7.90;99.90
7232;DHT22;3657;49.630;11.018;2023-11-21T04:34:54;7.90;99.90
7232;DHT22;3657;49.630;11.018;2023-11-21T04:37:21;7.90;99.90
7232;DHT22;3657;49.630;11.018;2023-11-21T04:39:48;7.90;99.90
7232;DHT22;3657;49.630;11.018;2023-11-21T04:42:16;7.90;99.90
7232;DHT22;3657;49.630;11.018;2023-11-21T04:44:42;7.90;99.90
7232;DHT22;3657;49.630;11.018;2023-11-21T04:47:09;7.80;99.90
7232;DHT22;3657;49.630;11.018;2023-11-21T04:49:36;7.80;99.90
7232;DHT22;3657;49.630;11.018;2023-11-21T04:52:03;7.80;99.90
7232;DHT22;3657;49.630;11.018;2023-11-21T04:54:31;7.80;99.90
7232;DHT22;3657;49.630;11.018;2023-11-21T04:56:57;7.80;99.90
7232;DHT22;3657;49.630;11.018;2023-11-21T04:59:25;7.80;99.90
7232;DHT22;3657;49.630;11.018;2023-11-21T05:01:52;7.80;99.90
7232;DHT22;3657;49.630;11.018;2023-11-21T05:04:19;7.90;99.90
7232;DHT22;3657;49.630;11.018;2023-11-21T05:06:47;7.80;99.90
7232;DHT22;3657;49.630;11.018;2023-11-21T05:09:14;7.80;99.90
7232;DHT22;3657;49.630;11.018;2023-11-21T05:11:41;7.90;99.90
7232;DHT22;3657;49.630;11.018;2023-11-21T05:14:08;7.90;99.90
7232;DHT22;3657;49.630;11.018;2023-11-21T05:16:36;7.90;99.90
7232;DHT22;3657;49.630;11.018;2023-11-21T05:19:03;7.90;99.90
7232;DHT22;3657;49.630;11.018;2023-11-21T05:21:30;7.90;99.90
7232;DHT22;3657;49.630;11.018;2023-11-21T05:23:57;7.90;99.90
7232;DHT22;3657;49.630;11.018;2023-11-21T05:26:24;7.90;99.90
7232;DHT22;3657;49.630;11.018;2023-11-21T05:28:51;7.90;99.90
7232;DHT22;3657;49.630;11.018;2023-11-21T05:31:18;7.90;99.90
7232;DHT22;3657;49.630;11.018;2023-11-21T05:33:46;7.90;99.90
7232;DHT22;3657;49.630;11.018;2023-11-21T05:36:13;7.90;99.90
7232;DHT22;3657;49.630;11.018;2023-11-21T05:38:40;7.90;99.90
7232;DHT22;3657;49.630;11.018;2023-11-21T05:41:07;7.90;99.90
7232;DHT22;3657;49.630;11.018;2023-11-21T05:43:36;7.90;99.90
7232;DHT22;3657;49.630;11.018;2023-11-21T05:46:03;7.90;99.90
7232;DHT22;3657;49.630;11.018;2023-11-21T05:48:29;7.80;99.90
7232;DHT22;3657;49.630;11.018;2023-11-21T05:50:58;7.90;99.90
7232;DHT22;3657;49.630;11.018;2023-11-21T05:53:27;7.90;99.90
7232;DHT22;3657;49.630;11.018;2023-11-21T05:55:53;7.90;99.90
7232;DHT22;3657;49.630;11.018;2023-11-21T05:58:20;7.90;99.90
7232;DHT22;3657;49.630;11.018;2023-11-21T06:00:46;7.90;99.90
7232;DHT22;3657;49.630;11.018;2023-11-21T06:03:12;7.90;99.90
7232;DHT22;3657;49.630;11.018;2023-11-21T06:05:39;7.90;99.90
7232;DHT22;3657;49.630;11.018;2023-11-21T06:08:07;7.90;99.90
7232;DHT22;3657;49.630;11.018;2023-11-21T06:10:34;7.90;99.90
7232;DHT22;3657;49.630;11.018;2023-11-21T06:13:01;7.90;99.90
7232;DHT22;3657;49.630;11.018;2023-11-21T06:15:29;7.90;99.90
7232;DHT22;3657;49.630;11.018;2023-11-21T06:17:56;7.80;99.90
7232;DHT22;3657;49.630;11.018;2023-11-21T06:20:22;7.80;99.90
7232;DHT22;3657;49.630;11.018;2023-11-21T06:22:51;7.80;99.90
7232;DHT22;3657;49.630;11.018;2023-11-21T06:25:19;7.80;99.90
7232;DHT22;3657;49.630;11.018;2023-11-21T06:27:47;7.80;99.90
7232;DHT22;3657;49.630;11.018;2023-11-21T06:30:14;7.70;99.90
7232;DHT22;3657;49.630;11.018;2023-11-21T06:32:41;7.70;99.90
7232;DHT22;3657;49.630;11.018;2023-11-21T06:35:11;7.60;99.90
7232;DHT22;3657;49.630;11.018;2023-11-21T06:37:38;7.60;99.90
7232;DHT22;3657;49.630;11.018;2023-11-21T06:40:06;7.60;99.90
7232;DHT22;3657;49.630;11.018;2023-11-21T06:42:35;7.60;99.90
7232;DHT22;3657;49.630;11.018;2023-11-21T06:45:04;7.60;99.90
7232;DHT22;3657;49.630;11.018;2023-11-21T06:47:31;7.70;99.90
7232;DHT22;3657;49.630;11.018;2023-11-21T06:49:58;7.70;99.90
7232;DHT22;3657;49.630;11.018;2023-11-21T06:52:25;7.70;99.90
7232;DHT22;3657;49.630;11.018;2023-11-21T06:54:52;7.70;99.90
7232;DHT22;3657;49.630;11.018;2023-11-21T06:57:19;7.70;99.90
7232;DHT22;3657;49.630;11.018;2023-11-21T06:59:47;7.70;99.90
7232;DHT22;3657;49.630;11.018;2023-11-21T07:02:14;7.70;99.90
7232;DHT22;3657;49.630;11.018;2023-11-21T07:04:43;7.80;99.90
7232;DHT22;3657;49.630;11.018;2023-11-21T07:07:10;7.80;99.90
7232;DHT22;3657;49.630;11.018;2023-11-21T07:09:37;7.80;99.90
7232;DHT22;3657;49.630;11.018;2023-11-21T07:12:04;7.80;99.90
7232;DHT22;3657;49.630;11.018;2023-11-21T07:14:33;7.80;99.90
7232;DHT22;3657;49.630;11.018;2023-11-21T07:17:01;7.90;99.90
7232;DHT22;3657;49.630;11.018;2023-11-21T07:19:27;7.90;99.90
7232;DHT22;3657;49.630;11.018;2023-11-21T07:21:54;7.90;99.90
7232;DHT22;3657;49.630;11.018;2023-11-21T07:24:21;7.90;99.90
7232;DHT22;3657;49.630;11.018;2023-11-21T07:26:49;7.90;99.90
7232;DHT22;3657;49.630;11.018;2023-11-21T07:29:15;7.90;99.90
7232;DHT22;3657;49.630;11.018;2023-11-21T07:31:42;8.00;99.90
7232;DHT22;3657;49.630;11.018;2023-11-21T07:34:10;8.00;99.90
7232;DHT22;3657;49.630;11.018;2023-11-21T07:36:37;8.00;99.90
7232;DHT22;3657;49.630;11.018;2023-11-21T07:39:04;8.00;99.90
7232;DHT22;3657;49.630;11.018;2023-11-21T07:41:32;8.00;99.90
7232;DHT22;3657;49.630;11.018;2023-11-21T07:43:58;8.10;99.90
7232;DHT22;3657;49.630;11.018;2023-11-21T07:46:26;8.10;99.90
7232;DHT22;3657;49.630;11.018;2023-11-21T07:48:52;8.10;99.90
7232;DHT22;3657;49.630;11.018;2023-11-21T07:51:21;8.10;99.90
7232;DHT22;3657;49.630;11.018;2023-11-21T07:53:48;8.10;99.90
7232;DHT22;3657;49.630;11.018;2023-11-21T07:56:15;8.10;99.90
7232;DHT22;3657;49.630;11.018;2023-11-21T07:58:41;8.10;99.90
7232;DHT22;3657;49.630;11.018;2023-11-21T08:01:08;8.10;99.90
7232;DHT22;3657;49.630;11.018;2023-11-21T08:03:35;8.10;99.90
7232;DHT22;3657;49.630;11.018;2023-11-21T08:06:02;8.00;99.90
7232;DHT22;3657;49.630;11.018;2023-11-21T08:08:32;8.10;99.90
7232;DHT22;3657;49.630;11.018;2023-11-21T08:10:59;8.10;99.90
7232;DHT22;3657;49.630;11.018;2023-11-21T08:13:28;8.10;99.90
7232;DHT22;3657;49.630;11.018;2023-11-21T08:15:56;8.10;99.90
7232;DHT22;3657;49.630;11.018;2023-11-21T08:18:26;8.20;99.90
7232;DHT22;3657;49.630;11.018;2023-11-21T08:20:54;8.20;99.90
7232;DHT22;3657;49.630;11.018;2023-11-21T08:23:21;8.10;99.90
7232;DHT22;3657;49.630;11.018;2023-11-21T08:25:52;8.10;99.90
7232;DHT22;3657;49.630;11.018;2023-11-21T08:28:19;8.10;99.90
7232;DHT22;3657;49.630;11.018;2023-11-21T08:30:51;8.10;99.90
7232;DHT22;3657;49.630;11.018;2023-11-21T08:33:18;8.10;99.90
7232;DHT22;3657;49.630;11.018;2023-11-21T08:35:44;8.10;99.90
7232;DHT22;3657;49.630;11.018;2023-11-21T08:38:12;8.10;99.90
7232;DHT22;3657;49.630;11.018;2023-11-21T08:40:39;8.10;99.90
7232;DHT22;3657;49.630;11.018;2023-11-21T08:43:07;8.10;99.90
7232;DHT22;3657;49.630;11.018;2023-11-21T08:45:34;8.10;99.90
7232;DHT22;3657;49.630;11.018;2023-11-21T08:48:00;8.10;99.90
7232;DHT22;3657;49.630;11.018;2023-11-21T08:50:27;8.10;99.90
7232;DHT22;3657;49.630;11.018;2023-11-21T08:52:54;8.20;99.90
7232;DHT22;3657;49.630;11.018;2023-11-21T08:55:21;8.30;99.90
7232;DHT22;3657;49.630;11.018;2023-11-21T08:57:48;8.30;99.90
7232;DHT22;3657;49.630;11.018;2023-11-21T09:00:16;8.40;99.90
7232;DHT22;3657;49.630;11.018;2023-11-21T09:02:44;8.40;99.90
7232;DHT22;3657;49.630;11.018;2023-11-21T09:05:12;8.40;99.90
7232;DHT22;3657;49.630;11.018;2023-11-21T09:07:40;8.40;99.90
7232;DHT22;3657;49.630;11.018;2023-11-21T09:10:08;8.40;99.90
7232;DHT22;3657;49.630;11.018;2023-11-21T09:12:36;8.40;99.90
7232;DHT22;3657;49.630;11.018;2023-11-21T09:15:04;8.40;99.90
7232;DHT22;3657;49.630;11.018;2023-11-21T09:17:33;8.40;99.90
7232;DHT22;3657;49.630;11.018;2023-11-21T09:20:00;8.40;99.90
7232;DHT22;3657;49.630;11.018;2023-11-21T09:22:29;8.40;99.90
7232;DHT22;3657;49.630;11.018;2023-11-21T09:24:57;8.40;99.90
7232;DHT22;3657;49.630;11.018;2023-11-21T09:27:24;8.40;99.90
7232;DHT22;3657;49.630;11.018;2023-11-21T09:29:51;8.50;99.90
7232;DHT22;3657;49.630;11.018;2023-11-21T09:32:18;8.50;99.90
7232;DHT22;3657;49.630;11.018;2023-11-21T09:34:48;8.50;99.90
7232;DHT22;3657;49.630;11.018;2023-11-21T09:37:14;8.50;99.90
7232;DHT22;3657;49.630;11.018;2023-11-21T09:39:41;8.50;99.90
7232;DHT22;3657;49.630;11.018;2023-11-21T09:42:10;8.50;99.90
7232;DHT22;3657;49.630;11.018;2023-11-21T09:44:44;8.50;99.90
7232;DHT22;3657;49.630;11.018;2023-11-21T09:47:15;8.50;99.90
7232;DHT22;3657;49.630;11.018;2023-11-21T09:49:43;8.60;99.90
7232;DHT22;3657;49.630;11.018;2023-11-21T09:52:20;8.60;99.90
7232;DHT22;3657;49.630;11.018;2023-11-21T09:54:51;8.60;99.90
7232;DHT22;3657;49.630;11.018;2023-11-21T09:57:19;8.70;99.90
7232;DHT22;3657;49.630;11.018;2023-11-21T09:59:50;8.70;99.90
7232;DHT22;3657;49.630;11.018;2023-11-21T10:02:17;8.80;99.90
7232;DHT22;3657;49.630;11.018;2023-11-21T10:04:46;8.80;99.90
7232;DHT22;3657;49.630;11.018;2023-11-21T10:07:16;8.90;99.90
7232;DHT22;3657;49.630;11.018;2023-11-21T10:09:44;8.90;99.90
7232;DHT22;3657;49.630;11.018;2023-11-21T10:12:11;8.90;99.90
7232;DHT22;3657;49.630;11.018;2023-11-21T10:14:41;9.00;99.90
7232;DHT22;3657;49.630;11.018;2023-11-21T10:17:10;9.00;99.90
7232;DHT22;3657;49.630;11.018;2023-11-21T10:19:38;9.00;99.90
7232;DHT22;3657;49.630;11.018;2023-11-21T10:22:05;9.00;99.90
7232;DHT22;3657;49.630;11.018;2023-11-21T10:24:35;9.00;99.90
7232;DHT22;3657;49.630;11.018;2023-11-21T10:27:03;9.10;99.90
7232;DHT22;3657;49.630;11.018;2023-11-21T10:29:30;9.10;99.90
7232;DHT22;3657;49.630;11.018;2023-11-21T10:32:02;9.10;99.90
7232;DHT22;3657;49.630;11.018;2023-11-21T10:34:28;9.10;99.90
7232;DHT22;3657;49.630;11.018;2023-11-21T10:36:55;9.20;99.90
7232;DHT22;3657;49.630;11.018;2023-11-21T10:39:24;9.20;99.90
7232;DHT22;3657;49.630;11.018;2023-11-21T10:41:55;9.20;99.90
7232;DHT22;3657;49.630;11.018;2023-11-21T10:44:22;9.20;99.90
7232;DHT22;3657;49.630;11.018;2023-11-21T10:46:50;9.20;99.90
7232;DHT22;3657;49.630;11.018;2023-11-21T10:49:17;9.20;99.90
7232;DHT22;3657;49.630;11.018;2023-11-21T10:51:45;9.20;99.90
7232;DHT22;3657;49.630;11.018;2023-11-21T10:54:17;9.20;99.90
7232;DHT22;3657;49.630;11.018;2023-11-21T10:56:44;9.30;99.90
7232;DHT22;3657;49.630;11.018;2023-11-21T10:59:13;9.20;99.90
7232;DHT22;3657;49.630;11.018;2023-11-21T11:01:42;9.20;99.90
7232;DHT22;3657;49.630;11.018;2023-11-21T11:04:11;9.30;99.90
7232;DHT22;3657;49.630;11.018;2023-11-21T11:06:42;9.30;99.90
7232;DHT22;3657;49.630;11.018;2023-11-21T11:09:10;9.30;99.90
7232;DHT22;3657;49.630;11.018;2023-11-21T11:11:39;9.30;99.90
7232;DHT22;3657;49.630;11.018;2023-11-21T11:14:07;9.30;99.90
7232;DHT22;3657;49.630;11.018;2023-11-21T11:16:36;9.40;99.90
7232;DHT22;3657;49.630;11.018;2023-11-21T11:19:05;9.40;99.90
7232;DHT22;3657;49.630;11.018;2023-11-21T11:21:38;9.40;99.90
7232;DHT22;3657;49.630;11.018;2023-11-21T11:24:27;9.40;99.90
7232;DHT22;3657;49.630;11.018;2023-11-21T11:27:06;9.50;99.90
7232;DHT22;3657;49.630;11.018;2023-11-21T11:29:42;9.50;99.90
7232;DHT22;3657;49.630;11.018;2023-11-21T11:32:22;9.50;99.90
7232;DHT22;3657;49.630;11.018;2023-11-21T11:34:59;9.50;99.90
7232;DHT22;3657;49.630;11.018;2023-11-21T11:37:27;9.50;99.90
7232;DHT22;3657;49.630;11.018;2023-11-21T11:39:54;9.60;99.90
7232;DHT22;3657;49.630;11.018;2023-11-21T11:42:23;9.60;99.90
7232;DHT22;3657;49.630;11.018;2023-11-21T11:44:51;9.60;99.90
7232;DHT22;3657;49.630;11.018;2023-11-21T11:47:22;9.60;99.90
7232;DHT22;3657;49.630;11.018;2023-11-21T11:50:13;9.60;99.90
7232;DHT22;3657;49.630;11.018;2023-11-21T11:52:43;9.60;99.90
7232;DHT22;3657;49.630;11.018;2023-11-21T11:55:10;9.60;99.90
7232;DHT22;3657;49.630;11.018;2023-11-21T11:57:38;9.60;99.90
7232;DHT22;3657;49.630;11.018;2023-11-21T12:00:15;9.70;99.90
7232;DHT22;3657;49.630;11.018;2023-11-21T12:02:46;9.70;99.90
7232;DHT22;3657;49.630;11.018;2023-11-21T12:05:14;9.80;99.90
7232;DHT22;3657;49.630;11.018;2023-11-21T12:07:46;9.80;99.90
7232;DHT22;3657;49.630;11.018;2023-11-21T12:10:14;9.80;99.90
7232;DHT22;3657;49.630;11.018;2023-11-21T12:12:44;9.80;99.90
7232;DHT22;3657;49.630;11.018;2023-11-21T12:15:11;9.80;99.90
7232;DHT22;3657;49.630;11.018;2023-11-21T12:17:39;9.80;99.90
7232;DHT22;3657;49.630;11.018;2023-11-21T12:20:08;9.80;99.90
7232;DHT22;3657;49.630;11.018;2023-11-21T12:22:43;9.90;99.90
7232;DHT22;3657;49.630;11.018;2023-11-21T12:25:10;9.90;99.90
7232;DHT22;3657;49.630;11.018;2023-11-21T12:27:42;10.00;99.90
7232;DHT22;3657;49.630;11.018;2023-11-21T12:30:10;10.10;99.90
7232;DHT22;3657;49.630;11.018;2023-11-21T12:32:39;10.10;99.90
7232;DHT22;3657;49.630;11.018;2023-11-21T12:35:09;10.10;99.90
7232;DHT22;3657;49.630;11.018;2023-11-21T12:37:36;10.10;99.90
7232;DHT22;3657;49.630;11.018;2023-11-21T12:40:05;10.20;99.90
7232;DHT22;3657;49.630;11.018;2023-11-21T12:42:33;10.20;99.90
7232;DHT22;3657;49.630;11.018;2023-11-21T12:45:10;10.20;99.90
7232;DHT22;3657;49.630;11.018;2023-11-21T12:47:46;10.20;99.90
7232;DHT22;3657;49.630;11.018;2023-11-21T12:50:14;10.30;99.90
7232;DHT22;3657;49.630;11.018;2023-11-21T12:52:42;10.20;99.90
7232;DHT22;3657;49.630;11.018;2023-11-21T12:55:14;10.20;99.90
7232;DHT22;3657;49.630;11.018;2023-11-21T12:57:44;10.30;99.90
7232;DHT22;3657;49.630;11.018;2023-11-21T13:00:13;10.30;99.90
7232;DHT22;3657;49.630;11.018;2023-11-21T13:02:52;10.40;99.90
7232;DHT22;3657;49.630;11.018;2023-11-21T13:05:27;10.40;99.90
7232;DHT22;3657;49.630;11.018;2023-11-21T13:07:54;10.40;99.90
7232;DHT22;3657;49.630;11.018;2023-11-21T13:10:24;10.40;99.90
7232;DHT22;3657;49.630;11.018;2023-11-21T13:12:55;10.40;99.90
7232;DHT22;3657;49.630;11.018;2023-11-21T13:15:23;10.40;99.90
7232;DHT22;3657;49.630;11.018;2023-11-21T13:17:50;10.50;99.90
7232;DHT22;3657;49.630;11.018;2023-11-21T13:20:19;10.50;99.90
7232;DHT22;3657;49.630;11.018;2023-11-21T13:22:48;10.60;99.90
7232;DHT22;3657;49.630;11.018;2023-11-21T13:25:16;10.60;99.90
7232;DHT22;3657;49.630;11.018;2023-11-21T13:27:45;10.60;99.90
7232;DHT22;3657;49.630;11.018;2023-11-21T13:30:13;10.60;99.90
7232;DHT22;3657;49.630;11.018;2023-11-21T13:32:42;10.70;99.90
7232;DHT22;3657;49.630;11.018;2023-11-21T13:35:09;10.60;99.90
7232;DHT22;3657;49.630;11.018;2023-11-21T13:37:50;10.60;99.90
7232;DHT22;3657;49.630;11.018;2023-11-21T13:40:20;10.60;99.90
7232;DHT22;3657;49.630;11.018;2023-11-21T13:42:51;10.60;99.90
7232;DHT22;3657;49.630;11.018;2023-11-21T13:45:20;10.60;99.90
7232;DHT22;3657;49.630;11.018;2023-11-21T13:47:48;10.60;99.90
7232;DHT22;3657;49.630;11.018;2023-11-21T13:50:16;10.60;99.90
7232;DHT22;3657;49.630;11.018;2023-11-21T13:52:49;10.60;99.90
7232;DHT22;3657;49.630;11.018;2023-11-21T13:55:18;10.70;99.90
7232;DHT22;3657;49.630;11.018;2023-11-21T13:57:45;10.70;99.90
7232;DHT22;3657;49.630;11.018;2023-11-21T14:00:15;10.70;99.90
7232;DHT22;3657;49.630;11.018;2023-11-21T14:03:05;10.70;99.90
7232;DHT22;3657;49.630;11.018;2023-11-21T14:05:41;10.80;99.90
7232;DHT22;3657;49.630;11.018;2023-11-21T14:08:10;10.80;99.90
7232;DHT22;3657;49.630;11.018;2023-11-21T14:10:42;10.80;99.90
7232;DHT22;3657;49.630;11.018;2023-11-21T14:13:10;10.80;99.90
7232;DHT22;3657;49.630;11.018;2023-11-21T14:15:39;10.70;99.90
7232;DHT22;3657;49.630;11.018;2023-11-21T14:18:08;10.60;99.90
7232;DHT22;3657;49.630;11.018;2023-11-21T14:20:36;10.70;99.90
7232;DHT22;3657;49.630;11.018;2023-11-21T14:23:04;10.70;99.90
7232;DHT22;3657;49.630;11.018;2023-11-21T14:25:33;10.70;99.90
7232;DHT22;3657;49.630;11.018;2023-11-21T14:28:02;10.70;99.90
7232;DHT22;3657;49.630;11.018;2023-11-21T14:30:29;10.70;99.90
7232;DHT22;3657;49.630;11.018;2023-11-21T14:32:57;10.70;99.90
7232;DHT22;3657;49.630;11.018;2023-11-21T14:35:24;10.60;99.90
7232;DHT22;3657;49.630;11.018;2023-11-21T14:37:52;10.60;99.90
7232;DHT22;3657;49.630;11.018;2023-11-21T14:40:19;10.60;99.90
7232;DHT22;3657;49.630;11.018;2023-11-21T14:42:51;10.50;99.90
7232;DHT22;3657;49.630;11.018;2023-11-21T14:45:20;10.50;99.90
7232;DHT22;3657;49.630;11.018;2023-11-21T14:47:48;10.50;99.90
7232;DHT22;3657;49.630;11.018;2023-11-21T14:50:22;10.60;99.90
7232;DHT22;3657;49.630;11.018;2023-11-21T14:53:13;10.50;99.90
7232;DHT22;3657;49.630;11.018;2023-11-21T14:55:40;10.40;99.90
7232;DHT22;3657;49.630;11.018;2023-11-21T14:58:23;10.40;99.90
7232;DHT22;3657;49.630;11.018;2023-11-21T15:00:54;10.40;99.90
7232;DHT22;3657;49.630;11.018;2023-11-21T15:03:24;10.40;99.90
7232;DHT22;3657;49.630;11.018;2023-11-21T15:06:09;10.30;99.90
7232;DHT22;3657;49.630;11.018;2023-11-21T15:08:54;10.30;99.90
7232;DHT22;3657;49.630;11.018;2023-11-21T15:11:40;10.30;99.90
7232;DHT22;3657;49.630;11.018;2023-11-21T15:14:09;10.30;99.90
7232;DHT22;3657;49.630;11.018;2023-11-21T15:16:38;10.30;99.90
7232;DHT22;3657;49.630;11.018;2023-11-21T15:19:08;10.30;99.90
7232;DHT22;3657;49.630;11.018;2023-11-21T15:21:35;10.20;99.90
7232;DHT22;3657;49.630;11.018;2023-11-21T15:24:03;10.20;99.90
7232;DHT22;3657;49.630;11.018;2023-11-21T15:26:29;10.20;99.90
7232;DHT22;3657;49.630;11.018;2023-11-21T15:28:56;10.20;99.90
7232;DHT22;3657;49.630;11.018;2023-11-21T15:31:24;10.20;99.90
7232;DHT22;3657;49.630;11.018;2023-11-21T15:33:51;10.10;99.90
7232;DHT22;3657;49.630;11.018;2023-11-21T15:36:18;10.10;99.90
7232;DHT22;3657;49.630;11.018;2023-11-21T15:38:45;10.10;99.90
7232;DHT22;3657;49.630;11.018;2023-11-21T15:41:11;10.10;99.90
7232;DHT22;3657;49.630;11.018;2023-11-21T15:43:38;10.10;99.90
7232;DHT22;3657;49.630;11.018;2023-11-21T15:46:05;10.10;99.90
7232;DHT22;3657;49.630;11.018;2023-11-21T15:48:34;10.10;99.90
7232;DHT22;3657;49.630;11.018;2023-11-21T15:51:01;10.10;99.90
7232;DHT22;3657;49.630;11.018;2023-11-21T15:53:30;10.00;99.90
7232;DHT22;3657;49.630;11.018;2023-11-21T15:55:56;10.00;99.90
7232;DHT22;3657;49.630;11.018;2023-11-21T15:58:23;10.00;99.90
7232;DHT22;3657;49.630;11.018;2023-11-21T16:00:51;10.00;99.90
7232;DHT22;3657;49.630;11.018;2023-11-21T16:03:18;9.90;99.90
7232;DHT22;3657;49.630;11.018;2023-11-21T16:05:45;9.90;99.90
7232;DHT22;3657;49.630;11.018;2023-11-21T16:08:13;9.90;99.90